Time;durP1;ratioP1;P1;durP2;ratioP2;P2;SDS_P1;SDS_P2;PMS_P1;PMS_P2;Temp;Humidity;BMP_temperature;BMP_pressure;BME280_temperature;BME280_humidity;BME280_pressure;Samples;Min_cycle;Max_cycle;Signal;HPM_P1;HPM_P2
2022/11/15 00:01:24;;;;;;;106.30;33.47;;;6.40;99.90;;;;;;5022384;28;20025;-74
2022/11/15 00:03:53;;;;;;;102.88;35.22;;;6.40;99.90;;;;;;5021109;28;20454;-74
2022/11/15 00:06:19;;;;;;;108.10;35.17;;;6.50;99.90;;;;;;5003944;28;20125;-74
2022/11/15 00:08:44;;;;;;;101.85;33.50;;;6.50;99.90;;;;;;5007722;28;20080;-77
2022/11/15 00:11:12;;;;;;;108.47;34.50;;;6.50;99.90;;;;;;5009825;28;20485;-75
2022/11/15 00:13:38;;;;;;;112.60;35.10;;;6.50;99.90;;;;;;5027824;28;20037;-74
2022/11/15 00:16:04;;;;;;;110.70;33.50;;;6.50;99.90;;;;;;5007182;28;20030;-74
2022/11/15 00:18:30;;;;;;;110.72;35.00;;;6.60;99.90;;;;;;5022991;28;20022;-74
2022/11/15 00:21:02;;;;;;;103.47;34.20;;;6.50;99.90;;;;;;5021573;28;20469;-74
2022/11/15 00:23:28;;;;;;;96.00;33.85;;;6.60;99.90;;;;;;5022366;28;20026;-74
2022/11/15 00:25:57;;;;;;;103.95;34.97;;;6.60;99.90;;;;;;5004016;28;20045;-74
2022/11/15 00:28:24;;;;;;;105.65;33.50;;;6.60;99.90;;;;;;5003905;28;20068;-74
2022/11/15 00:30:50;;;;;;;110.25;34.08;;;6.60;99.90;;;;;;5021131;28;20037;-74
2022/11/15 00:33:16;;;;;;;108.18;36.30;;;6.60;99.90;;;;;;5003436;28;20034;-74
2022/11/15 00:35:41;;;;;;;104.50;34.67;;;6.60;99.90;;;;;;5003232;28;20084;-74
2022/11/15 00:38:07;;;;;;;120.45;35.83;;;6.60;99.90;;;;;;5001945;28;20033;-74
2022/11/15 00:40:33;;;;;;;112.53;34.97;;;6.60;99.90;;;;;;5019897;28;20030;-74
2022/11/15 00:42:59;;;;;;;109.18;35.75;;;6.60;99.90;;;;;;5020675;28;20058;-74
2022/11/15 00:45:25;;;;;;;102.88;34.50;;;6.60;99.90;;;;;;5003213;28;20053;-74
2022/11/15 00:47:51;;;;;;;111.55;35.40;;;6.60;99.90;;;;;;5020914;28;20030;-74
2022/11/15 00:50:17;;;;;;;110.13;36.15;;;6.60;99.90;;;;;;5004280;28;20446;-74
2022/11/15 00:52:43;;;;;;;122.18;36.13;;;6.60;99.90;;;;;;5004213;28;20038;-74
2022/11/15 00:55:18;;;;;;;124.25;36.40;;;6.60;99.90;;;;;;5004424;28;20030;-74
2022/11/15 00:57:45;;;;;;;122.72;37.13;;;6.60;99.90;;;;;;5021876;28;20030;-74
2022/11/15 01:00:11;;;;;;;104.10;35.65;;;6.60;99.90;;;;;;5021916;28;20025;-74
2022/11/15 01:02:37;;;;;;;100.30;34.63;;;6.60;99.90;;;;;;5005250;28;20053;-74
2022/11/15 01:05:03;;;;;;;103.50;34.50;;;6.60;99.90;;;;;;5022209;28;20413;-74
2022/11/15 01:07:29;;;;;;;97.97;32.95;;;6.60;99.90;;;;;;5004341;28;20433;-74
2022/11/15 01:09:54;;;;;;;97.20;32.67;;;6.60;99.90;;;;;;5021489;28;20110;-74
2022/11/15 01:12:20;;;;;;;112.50;34.70;;;6.60;99.90;;;;;;5020609;28;20048;-74
2022/11/15 01:14:45;;;;;;;100.05;33.72;;;6.60;99.90;;;;;;5020901;28;20083;-74
2022/11/15 01:17:11;;;;;;;111.28;32.60;;;6.60;99.90;;;;;;5002604;28;20030;-74
2022/11/15 01:19:37;;;;;;;101.70;32.55;;;6.60;99.90;;;;;;5019440;28;20032;-74
2022/11/15 01:22:02;;;;;;;93.95;31.48;;;6.60;99.90;;;;;;5001732;28;20458;-74
2022/11/15 01:24:28;;;;;;;105.38;33.10;;;6.60;99.90;;;;;;5019084;28;20089;-74
2022/11/15 01:26:54;;;;;;;96.18;29.80;;;6.70;99.90;;;;;;5018684;28;20081;-74
2022/11/15 01:29:19;;;;;;;103.70;31.73;;;6.60;99.90;;;;;;5019425;28;20075;-74
2022/11/15 01:31:45;;;;;;;94.35;31.02;;;6.60;99.90;;;;;;5001128;28;20022;-74
2022/11/15 01:34:10;;;;;;;96.60;31.38;;;6.60;99.90;;;;;;5001486;28;20069;-74
2022/11/15 01:36:36;;;;;;;95.65;31.33;;;6.60;99.90;;;;;;5001340;28;20025;-74
2022/11/15 01:39:02;;;;;;;102.03;31.42;;;6.60;99.90;;;;;;5017869;28;20030;-74
2022/11/15 01:41:32;;;;;;;94.15;31.65;;;6.60;99.90;;;;;;5018340;28;20060;-74
2022/11/15 01:44:30;;;;;;;95.78;31.00;;;6.60;99.90;;;;;;5000523;28;20081;-74
2022/11/15 01:46:57;;;;;;;92.18;30.98;;;6.60;99.90;;;;;;5001151;28;20029;-74
2022/11/15 01:49:24;;;;;;;92.00;29.95;;;6.60;99.90;;;;;;5002488;28;20022;-74
2022/11/15 01:51:50;;;;;;;97.30;30.23;;;6.60;99.90;;;;;;5002905;28;20037;-74
2022/11/15 01:54:19;;;;;;;94.35;31.02;;;6.60;99.90;;;;;;5020236;28;20041;-74
2022/11/15 01:57:08;;;;;;;101.65;31.63;;;6.60;99.90;;;;;;5003290;28;20430;-74
2022/11/15 01:59:34;;;;;;;100.40;31.35;;;6.60;99.90;;;;;;5004234;28;20030;-74
2022/11/15 02:02:00;;;;;;;101.00;30.50;;;6.70;99.90;;;;;;5001993;28;20034;-74
2022/11/15 02:04:27;;;;;;;101.55;31.60;;;6.70;99.90;;;;;;5001424;28;20040;-74
2022/11/15 02:06:53;;;;;;;104.35;31.90;;;6.70;99.90;;;;;;5018262;28;20025;-74
2022/11/15 02:09:19;;;;;;;108.03;32.63;;;6.70;99.90;;;;;;5001167;28;20080;-74
2022/11/15 02:11:47;;;;;;;98.07;30.98;;;6.70;99.90;;;;;;5018091;28;20034;-74
2022/11/15 02:14:14;;;;;;;101.15;32.75;;;6.70;99.90;;;;;;5016962;28;20034;-74
2022/11/15 02:16:54;;;;;;;107.55;33.72;;;6.70;99.90;;;;;;4999154;28;20112;-74
2022/11/15 02:19:58;;;;;;;93.40;31.65;;;6.70;99.90;;;;;;5016481;28;20022;-74
2022/11/15 02:22:41;;;;;;;95.85;33.03;;;6.70;99.90;;;;;;5017097;28;20038;-73
2022/11/15 02:25:14;;;;;;;97.20;32.53;;;6.70;99.90;;;;;;4996975;28;20022;-74
2022/11/15 02:28:17;;;;;;;86.50;30.27;;;6.70;99.90;;;;;;4997025;28;20496;-74
2022/11/15 02:31:00;;;;;;;88.22;30.13;;;6.70;99.90;;;;;;4957880;28;20038;-74
2022/11/15 02:33:53;;;;;;;82.43;29.58;;;6.70;99.90;;;;;;5014758;28;20516;-74
2022/11/15 02:36:29;;;;;;;80.22;28.27;;;6.70;99.90;;;;;;4996819;28;20022;-74
2022/11/15 02:39:14;;;;;;;65.60;26.52;;;6.70;99.90;;;;;;4996766;28;20113;-74
2022/11/15 02:41:57;;;;;;;69.85;27.27;;;6.70;99.90;;;;;;5014773;28;20026;-74
2022/11/15 02:44:38;;;;;;;68.10;24.73;;;6.70;99.90;;;;;;5015113;28;20144;-74
2022/11/15 02:47:14;;;;;;;65.60;25.98;;;6.70;99.90;;;;;;4997255;28;20038;-74
2022/11/15 02:49:50;;;;;;;60.83;25.05;;;6.70;99.90;;;;;;4998721;28;20033;-74
2022/11/15 02:52:17;;;;;;;62.97;25.55;;;6.70;99.90;;;;;;4997973;28;20497;-74
2022/11/15 02:54:56;;;;;;;63.15;25.13;;;6.70;99.90;;;;;;4996993;28;20184;-74
2022/11/15 02:57:51;;;;;;;61.92;24.90;;;6.70;99.90;;;;;;4996525;28;20029;-74
2022/11/15 03:00:20;;;;;;;64.10;25.10;;;6.70;99.90;;;;;;5015114;28;20042;-74
2022/11/15 03:03:16;;;;;;;66.35;26.92;;;6.80;99.90;;;;;;5018428;28;20030;-74
2022/11/15 03:05:54;;;;;;;55.47;23.13;;;6.80;99.90;;;;;;5018000;28;20026;-74
2022/11/15 03:08:32;;;;;;;56.15;24.40;;;6.80;99.90;;;;;;5018375;28;20026;-74
2022/11/15 03:11:08;;;;;;;50.50;22.48;;;6.80;99.90;;;;;;4999676;28;20037;-74
2022/11/15 03:13:54;;;;;;;56.55;23.75;;;6.80;99.90;;;;;;4999840;28;20172;-74
2022/11/15 03:16:42;;;;;;;59.22;23.38;;;6.80;99.90;;;;;;5017745;28;20469;-74
2022/11/15 03:19:19;;;;;;;52.67;22.95;;;6.90;99.90;;;;;;4999997;28;20565;-74
2022/11/15 03:21:47;;;;;;;56.88;23.98;;;6.80;99.90;;;;;;5017502;28;20054;-74
2022/11/15 03:24:15;;;;;;;56.38;23.23;;;6.90;99.90;;;;;;5017557;28;20077;-74
2022/11/15 03:26:43;;;;;;;56.38;23.13;;;6.90;99.90;;;;;;4999132;28;20068;-74
2022/11/15 03:29:17;;;;;;;58.22;23.85;;;6.90;99.90;;;;;;5016981;28;20056;-74
2022/11/15 03:31:51;;;;;;;60.55;24.63;;;6.90;99.90;;;;;;4999206;28;20386;-74
2022/11/15 03:35:05;;;;;;;59.28;25.40;;;6.80;99.90;;;;;;4999496;28;20057;-74
2022/11/15 03:37:42;;;;;;;68.63;26.17;;;6.90;99.90;;;;;;4986450;28;20064;-74
2022/11/15 03:40:09;;;;;;;60.25;26.38;;;6.90;99.90;;;;;;5017082;28;20030;-74
2022/11/15 03:42:55;;;;;;;66.18;23.90;;;6.90;99.90;;;;;;4998799;28;20054;-74
2022/11/15 03:45:31;;;;;;;59.90;25.67;;;6.90;99.90;;;;;;4999165;28;20461;-74
2022/11/15 03:48:07;;;;;;;56.88;23.05;;;6.90;99.90;;;;;;5016350;28;20045;-74
2022/11/15 03:50:34;;;;;;;57.15;23.92;;;6.80;99.90;;;;;;5016719;28;20065;-74
2022/11/15 03:53:00;;;;;;;63.08;25.25;;;6.90;99.90;;;;;;5016665;28;20463;-73
2022/11/15 03:55:26;;;;;;;63.30;25.98;;;6.90;99.90;;;;;;4999171;28;20462;-74
2022/11/15 03:57:55;;;;;;;57.00;25.83;;;6.90;99.90;;;;;;5016403;28;20069;-74
2022/11/15 04:00:21;;;;;;;57.95;25.77;;;6.90;99.90;;;;;;4999434;28;20029;-74
2022/11/15 04:02:47;;;;;;;64.95;26.45;;;6.90;99.90;;;;;;5016440;28;20390;-74
2022/11/15 04:05:13;;;;;;;73.50;26.90;;;6.90;99.90;;;;;;4998884;28;20029;-74
2022/11/15 04:07:38;;;;;;;77.57;27.95;;;6.90;99.90;;;;;;4998739;28;20026;-74
2022/11/15 04:10:07;;;;;;;74.00;27.08;;;6.90;99.90;;;;;;5016066;28;20427;-74
2022/11/15 04:12:35;;;;;;;72.95;28.27;;;6.90;99.90;;;;;;4999207;28;20440;-74
2022/11/15 04:15:07;;;;;;;64.53;25.77;;;6.90;99.90;;;;;;5016296;28;20037;-74
2022/11/15 04:17:37;;;;;;;71.80;27.88;;;6.90;99.90;;;;;;4998852;28;20025;-74
2022/11/15 04:25:47;;;;;;;71.93;27.48;;;7.00;99.90;;;;;;5016436;28;20129;-74
2022/11/15 04:28:13;;;;;;;75.05;26.10;;;7.00;99.90;;;;;;5000187;28;20029;-75
2022/11/15 04:30:38;;;;;;;68.70;25.90;;;7.00;99.90;;;;;;5022083;28;20386;-75
2022/11/15 04:33:04;;;;;;;66.72;26.58;;;6.90;99.90;;;;;;5022015;28;20148;-74
2022/11/15 04:35:30;;;;;;;79.47;28.35;;;6.90;99.90;;;;;;5003695;28;20049;-74
2022/11/15 04:37:57;;;;;;;73.82;28.65;;;6.90;99.90;;;;;;5003076;28;20030;-74
2022/11/15 04:40:22;;;;;;;75.57;28.58;;;6.90;99.90;;;;;;5020009;28;20049;-74
2022/11/15 04:42:48;;;;;;;74.57;27.52;;;6.90;99.90;;;;;;5001487;28;20062;-74
2022/11/15 04:45:14;;;;;;;72.53;27.25;;;6.90;99.90;;;;;;5001775;28;20033;-74
2022/11/15 04:47:40;;;;;;;77.13;27.08;;;6.90;99.90;;;;;;5020482;28;20022;-74
2022/11/15 04:50:06;;;;;;;76.57;27.83;;;6.90;99.90;;;;;;5003537;28;20030;-73
2022/11/15 04:52:32;;;;;;;86.03;28.33;;;6.90;99.90;;;;;;5000371;28;20030;-73
2022/11/15 04:54:57;;;;;;;74.28;28.77;;;6.90;99.90;;;;;;5017799;28;20470;-73
2022/11/15 04:57:23;;;;;;;100.68;28.50;;;6.80;99.90;;;;;;5002471;28;20036;-74
2022/11/15 04:59:48;;;;;;;77.75;28.50;;;6.80;99.90;;;;;;5020397;28;20062;-74
2022/11/15 05:02:14;;;;;;;89.55;30.10;;;6.80;99.90;;;;;;5004587;28;20033;-74
2022/11/15 05:04:40;;;;;;;83.88;28.23;;;6.80;99.90;;;;;;5006141;28;20034;-75
2022/11/15 05:07:05;;;;;;;97.20;30.83;;;6.80;99.90;;;;;;5005350;28;20107;-75
2022/11/15 05:09:31;;;;;;;95.25;29.13;;;6.80;99.90;;;;;;5006716;28;20521;-74
2022/11/15 05:11:57;;;;;;;95.20;29.45;;;6.80;99.90;;;;;;5003793;28;20481;-74
2022/11/15 05:14:22;;;;;;;101.10;31.20;;;6.80;99.90;;;;;;5003498;28;20026;-74
2022/11/15 05:16:48;;;;;;;80.05;27.80;;;6.80;99.90;;;;;;5021645;28;20045;-74
2022/11/15 05:19:14;;;;;;;96.82;29.70;;;6.80;99.90;;;;;;5004654;28;20022;-73
2022/11/15 05:21:40;;;;;;;89.05;28.80;;;6.80;99.90;;;;;;5021931;28;20034;-73
2022/11/15 05:24:06;;;;;;;77.75;27.92;;;6.80;99.90;;;;;;5020628;28;20038;-74
2022/11/15 05:26:32;;;;;;;91.70;29.05;;;6.80;99.90;;;;;;5021093;28;20089;-74
2022/11/15 05:28:58;;;;;;;97.40;29.02;;;6.80;99.90;;;;;;5021133;28;20026;-74
2022/11/15 05:31:25;;;;;;;82.75;26.67;;;6.80;99.90;;;;;;5021890;28;20046;-74
2022/11/15 05:33:53;;;;;;;85.88;28.70;;;6.80;99.90;;;;;;5005280;28;20037;-74
2022/11/15 05:36:51;;;;;;;83.03;27.20;;;6.80;99.90;;;;;;5020834;28;20124;-74
2022/11/15 05:39:17;;;;;;;79.18;27.52;;;6.80;99.90;;;;;;5002736;28;20045;-74
2022/11/15 05:41:47;;;;;;;89.13;27.77;;;6.80;99.90;;;;;;5020664;28;20029;-74
2022/11/15 05:44:16;;;;;;;80.25;27.95;;;6.80;99.90;;;;;;5002651;28;20050;-74
2022/11/15 05:46:43;;;;;;;84.53;26.17;;;6.80;99.90;;;;;;5019966;28;20065;-74
2022/11/15 05:49:12;;;;;;;75.50;27.30;;;6.80;99.90;;;;;;5000894;28;20037;-74
2022/11/15 05:51:39;;;;;;;77.95;27.42;;;6.80;99.90;;;;;;5020005;28;20034;-74
2022/11/15 05:54:04;;;;;;;92.78;26.90;;;6.80;99.90;;;;;;5001155;28;20038;-74
2022/11/15 05:56:30;;;;;;;82.90;26.83;;;6.80;99.90;;;;;;5018777;28;20168;-74
2022/11/15 05:58:58;;;;;;;72.90;25.50;;;6.80;99.90;;;;;;5018858;28;20096;-74
2022/11/15 06:01:26;;;;;;;86.15;26.75;;;6.80;99.90;;;;;;5018225;28;20117;-77
2022/11/15 06:03:51;;;;;;;75.22;26.48;;;6.80;99.90;;;;;;5020065;28;20038;-75
2022/11/15 06:06:17;;;;;;;74.72;25.77;;;6.70;99.90;;;;;;5001502;28;20071;-75
2022/11/15 06:08:43;;;;;;;77.25;26.73;;;6.70;99.90;;;;;;5002459;28;20033;-73
2022/11/15 06:11:08;;;;;;;67.85;23.23;;;6.70;99.90;;;;;;5001242;28;20030;-73
2022/11/15 06:13:34;;;;;;;74.13;25.85;;;6.70;99.90;;;;;;5015993;28;20041;-73
2022/11/15 06:16:00;;;;;;;73.88;25.08;;;6.70;99.90;;;;;;4998105;28;20054;-73
2022/11/15 06:18:26;;;;;;;80.90;25.38;;;6.70;99.90;;;;;;5000892;28;20477;-74
2022/11/15 06:20:52;;;;;;;76.68;26.15;;;6.70;99.90;;;;;;5002482;28;20033;-75
2022/11/15 06:23:17;;;;;;;78.75;25.80;;;6.70;99.90;;;;;;5021099;28;20036;-77
2022/11/15 06:25:43;;;;;;;78.95;26.05;;;6.70;99.90;;;;;;5000926;28;20060;-75
2022/11/15 06:28:09;;;;;;;81.18;26.20;;;6.70;99.90;;;;;;5001348;28;20041;-75
2022/11/15 06:30:34;;;;;;;88.72;27.65;;;6.70;99.90;;;;;;4999870;28;20038;-74
2022/11/15 06:33:01;;;;;;;82.85;27.67;;;6.70;99.90;;;;;;5017709;28;20064;-76
2022/11/15 06:35:27;;;;;;;83.28;26.45;;;6.70;99.90;;;;;;5002225;28;20057;-76
2022/11/15 06:37:53;;;;;;;83.95;27.52;;;6.80;99.90;;;;;;5004240;28;20098;-76
2022/11/15 06:40:19;;;;;;;85.72;26.25;;;6.80;99.90;;;;;;5021063;28;20057;-75
2022/11/15 06:42:45;;;;;;;83.88;26.35;;;6.80;99.90;;;;;;5019660;28;20054;-74
2022/11/15 06:45:10;;;;;;;81.45;27.13;;;6.80;99.90;;;;;;5019781;28;20030;-74
2022/11/15 06:47:43;;;;;;;86.18;26.40;;;6.80;99.90;;;;;;5002393;28;20125;-74
2022/11/15 06:50:09;;;;;;;86.88;27.13;;;6.80;99.90;;;;;;5003506;28;20460;-73
2022/11/15 06:52:35;;;;;;;88.85;28.55;;;6.80;99.90;;;;;;5019909;28;20069;-74
2022/11/15 06:55:00;;;;;;;85.75;26.45;;;6.80;99.90;;;;;;5002339;28;20030;-74
2022/11/15 06:57:26;;;;;;;92.78;27.10;;;6.80;99.90;;;;;;5020602;28;20109;-73
2022/11/15 06:59:51;;;;;;;92.90;26.80;;;6.90;99.90;;;;;;5020745;28;20472;-74
2022/11/15 07:02:17;;;;;;;84.47;27.50;;;6.90;99.90;;;;;;5021841;28;20553;-74
2022/11/15 07:04:43;;;;;;;90.85;27.25;;;6.90;99.90;;;;;;5021542;28;20450;-73
2022/11/15 07:07:09;;;;;;;77.22;26.48;;;6.90;99.90;;;;;;5002676;28;20021;-74
2022/11/15 07:09:35;;;;;;;77.95;25.85;;;7.00;99.90;;;;;;4995840;28;20562;-74
2022/11/15 07:12:00;;;;;;;91.03;30.25;;;7.00;99.90;;;;;;4996159;28;20054;-60
2022/11/15 07:14:26;;;;;;;87.65;27.02;;;7.00;99.90;;;;;;5002385;28;20121;-60
2022/11/15 07:16:52;;;;;;;96.55;28.65;;;7.00;99.90;;;;;;4998879;28;20061;-60
2022/11/15 07:19:17;;;;;;;88.63;27.60;;;7.00;99.90;;;;;;4999215;28;20057;-60
2022/11/15 07:21:43;;;;;;;104.47;28.98;;;7.10;99.90;;;;;;5016363;28;20385;-60
2022/11/15 07:24:09;;;;;;;96.22;29.83;;;7.10;99.90;;;;;;5016864;28;20037;-60
2022/11/15 07:26:34;;;;;;;92.75;26.80;;;7.10;99.90;;;;;;4999352;28;20421;-60
2022/11/15 07:29:00;;;;;;;91.30;27.00;;;7.10;99.90;;;;;;5016239;28;20140;-60
2022/11/15 07:31:26;;;;;;;104.57;27.92;;;7.10;99.90;;;;;;5016561;28;20476;-60
2022/11/15 07:33:51;;;;;;;95.50;27.73;;;7.00;99.90;;;;;;5015939;28;20034;-60
2022/11/15 07:36:17;;;;;;;99.30;29.52;;;7.00;99.90;;;;;;5016474;28;20030;-60
2022/11/15 07:38:42;;;;;;;94.30;28.58;;;7.00;99.90;;;;;;5016410;28;20049;-60
2022/11/15 07:41:09;;;;;;;102.22;30.40;;;7.10;99.90;;;;;;5016587;28;20123;-74
2022/11/15 07:43:35;;;;;;;104.43;29.35;;;7.10;99.90;;;;;;5019154;28;20414;-75
2022/11/15 07:46:10;;;;;;;104.60;28.15;;;7.10;99.90;;;;;;5002205;28;20029;-73
2022/11/15 07:48:40;;;;;;;90.68;28.90;;;7.00;99.90;;;;;;4999851;28;20033;-74
2022/11/15 07:51:15;;;;;;;85.32;27.35;;;7.00;99.90;;;;;;4998470;28;20030;-74
2022/11/15 07:53:43;;;;;;;91.25;28.00;;;7.10;99.90;;;;;;4998339;28;20132;-74
2022/11/15 07:56:11;;;;;;;75.10;24.50;;;7.10;99.90;;;;;;4998634;28;20041;-74
2022/11/15 07:58:37;;;;;;;77.07;25.97;;;7.10;99.90;;;;;;4999729;28;20339;-74
2022/11/15 08:01:08;;;;;;;77.82;24.48;;;7.00;99.90;;;;;;5021225;28;20022;-75
2022/11/15 08:03:34;;;;;;;70.97;22.92;;;7.00;99.90;;;;;;5000297;28;20360;-75
2022/11/15 08:06:00;;;;;;;73.72;25.55;;;7.00;99.90;;;;;;4996846;28;20027;-75
2022/11/15 08:08:26;;;;;;;72.43;23.85;;;6.90;99.90;;;;;;4995264;28;20378;-75
2022/11/15 08:10:51;;;;;;;71.15;24.75;;;6.90;99.90;;;;;;4996659;28;20030;-75
2022/11/15 08:13:17;;;;;;;85.15;26.98;;;6.90;99.90;;;;;;4995801;28;20038;-74
2022/11/15 08:15:43;;;;;;;81.47;26.67;;;6.90;99.90;;;;;;4997249;28;20026;-75
2022/11/15 08:18:14;;;;;;;85.43;25.40;;;6.80;99.90;;;;;;4998065;28;20033;-74
2022/11/15 08:20:40;;;;;;;92.00;29.50;;;6.90;99.90;;;;;;4997758;28;20446;-75
2022/11/15 08:23:07;;;;;;;100.35;27.85;;;6.90;99.90;;;;;;4998983;28;20477;-74
2022/11/15 08:25:34;;;;;;;83.18;26.15;;;6.90;99.90;;;;;;5000565;28;20046;-74
2022/11/15 08:28:02;;;;;;;75.43;25.70;;;7.00;99.90;;;;;;4999129;28;20144;-73
2022/11/15 08:30:29;;;;;;;74.43;24.88;;;7.00;99.90;;;;;;4999102;28;20026;-73
2022/11/15 08:32:57;;;;;;;79.53;25.35;;;7.00;99.90;;;;;;4997952;28;20042;-74
2022/11/15 08:35:23;;;;;;;78.20;25.13;;;7.00;99.90;;;;;;4997234;28;20029;-74
2022/11/15 08:37:49;;;;;;;64.32;22.83;;;7.00;99.90;;;;;;4997674;28;20035;-74
2022/11/15 08:40:15;;;;;;;68.47;23.30;;;7.00;99.90;;;;;;4995448;28;20076;-74
2022/11/15 08:42:41;;;;;;;61.92;22.20;;;6.90;99.90;;;;;;4994735;28;20042;-74
2022/11/15 08:45:08;;;;;;;70.32;23.85;;;6.90;99.90;;;;;;4996413;28;20467;-75
2022/11/15 08:47:34;;;;;;;72.03;23.95;;;6.90;99.90;;;;;;4996291;28;20030;-74
2022/11/15 08:50:00;;;;;;;60.22;21.98;;;6.90;99.90;;;;;;4995412;28;20454;-74
2022/11/15 08:52:26;;;;;;;73.45;24.75;;;6.90;99.90;;;;;;4996016;28;20101;-74
2022/11/15 08:54:51;;;;;;;66.93;23.73;;;6.90;99.90;;;;;;4996367;28;20038;-75
2022/11/15 08:57:17;;;;;;;65.38;22.83;;;7.00;99.90;;;;;;4996986;28;20486;-74
2022/11/15 08:59:43;;;;;;;77.88;25.33;;;7.00;99.90;;;;;;4997656;28;20030;-74
2022/11/15 09:02:14;;;;;;;74.55;24.67;;;7.00;99.90;;;;;;4997721;28;20030;-75
2022/11/15 09:04:42;;;;;;;69.35;24.00;;;7.10;99.90;;;;;;4997994;28;20037;-74
2022/11/15 09:07:09;;;;;;;69.18;23.02;;;7.00;99.90;;;;;;4994674;28;20117;-74
2022/11/15 09:09:34;;;;;;;70.93;24.30;;;7.00;99.90;;;;;;4994783;28;20026;-74
2022/11/15 09:12:00;;;;;;;70.03;23.63;;;7.00;99.90;;;;;;4994895;28;20443;-74
2022/11/15 09:14:26;;;;;;;81.70;24.73;;;6.90;99.90;;;;;;4995436;28;20042;-74
2022/11/15 09:16:52;;;;;;;75.30;24.98;;;7.00;99.90;;;;;;4995499;28;20054;-74
2022/11/15 09:19:17;;;;;;;80.07;26.90;;;7.00;99.90;;;;;;4996304;28;20137;-74
2022/11/15 09:21:43;;;;;;;82.32;26.40;;;7.00;99.90;;;;;;4994901;28;20565;-74
2022/11/15 09:24:09;;;;;;;79.57;25.33;;;7.00;99.90;;;;;;4994110;28;20522;-74
2022/11/15 09:26:34;;;;;;;78.50;23.98;;;7.00;99.90;;;;;;4996372;28;20022;-74
2022/11/15 09:29:01;;;;;;;79.25;24.88;;;6.90;99.90;;;;;;4994087;28;20026;-74
2022/11/15 09:31:26;;;;;;;78.97;24.00;;;7.00;99.90;;;;;;4994045;28;20027;-74
2022/11/15 09:33:52;;;;;;;83.90;26.67;;;6.90;99.90;;;;;;4995346;28;20165;-74
2022/11/15 09:36:18;;;;;;;89.03;26.42;;;6.90;99.90;;;;;;4994488;28;20026;-74
2022/11/15 09:38:44;;;;;;;95.40;27.80;;;6.90;99.90;;;;;;4995270;28;20466;-74
2022/11/15 09:41:12;;;;;;;97.90;25.92;;;6.90;99.90;;;;;;4995416;28;20029;-74
2022/11/15 09:44:19;;;;;;;76.78;20.40;;;6.90;99.90;;;;;;4997977;28;20474;-75
2022/11/15 09:47:08;;;;;;;91.07;28.75;;;7.00;99.90;;;;;;4959339;28;20398;-74
2022/11/15 09:49:34;;;;;;;104.95;26.05;;;7.00;99.90;;;;;;4998088;28;20028;-74
2022/11/15 09:52:00;;;;;;;104.38;29.27;;;7.10;99.90;;;;;;4999491;28;20097;-74
2022/11/15 09:54:36;;;;;;;114.70;29.10;;;7.10;99.90;;;;;;4999247;28;20533;-74
2022/11/15 09:57:37;;;;;;;95.18;28.25;;;7.10;99.90;;;;;;4997322;28;20464;-74
2022/11/15 10:00:22;;;;;;;94.32;26.58;;;7.10;99.90;;;;;;4997196;28;20117;-74
2022/11/15 10:02:53;;;;;;;101.43;28.98;;;7.20;99.90;;;;;;4997643;28;20057;-74
2022/11/15 10:05:22;;;;;;;90.88;26.23;;;7.20;99.90;;;;;;4998045;28;20525;-74
2022/11/15 10:07:51;;;;;;;98.05;27.33;;;7.20;99.90;;;;;;4996394;28;20433;-74
2022/11/15 10:10:44;;;;;;;97.82;27.52;;;7.20;99.90;;;;;;5001211;28;20031;-74
2022/11/15 10:13:24;;;;;;;95.97;28.55;;;7.20;99.90;;;;;;5002379;28;20038;-74
2022/11/15 10:15:51;;;;;;;102.20;27.48;;;7.30;99.90;;;;;;5002356;28;20065;-74
2022/11/15 10:18:50;;;;;;;87.57;27.55;;;7.30;99.90;;;;;;5002631;28;20033;-74
2022/11/15 10:21:23;;;;;;;97.50;27.98;;;7.30;99.90;;;;;;5004394;28;20022;-75
2022/11/15 10:23:50;;;;;;;103.38;30.67;;;7.30;99.90;;;;;;5003456;28;20034;-74
2022/11/15 10:26:17;;;;;;;99.35;28.77;;;7.40;99.90;;;;;;5003529;28;20032;-74
2022/11/15 10:28:42;;;;;;;91.85;26.70;;;7.40;99.90;;;;;;5002493;28;20085;-74
2022/11/15 10:31:25;;;;;;;96.68;28.27;;;7.50;99.90;;;;;;5004293;28;20382;-74
2022/11/15 10:33:56;;;;;;;86.13;27.75;;;7.50;99.90;;;;;;5005338;28;20084;-74
2022/11/15 10:36:26;;;;;;;92.10;28.70;;;7.50;99.90;;;;;;5003896;28;20370;-74
2022/11/15 10:38:54;;;;;;;86.30;27.65;;;7.50;99.90;;;;;;5002390;28;20037;-74
2022/11/15 10:41:22;;;;;;;79.68;27.95;;;7.50;99.90;;;;;;5002187;28;20117;-74
2022/11/15 10:44:12;;;;;;;92.68;29.83;;;7.50;99.90;;;;;;5001853;28;20380;-74
2022/11/15 10:46:40;;;;;;;88.97;28.25;;;7.60;99.90;;;;;;5001915;28;20030;-74
2022/11/15 10:49:15;;;;;;;79.85;27.63;;;7.70;99.90;;;;;;5001564;28;20090;-74
2022/11/15 10:52:03;;;;;;;88.68;27.77;;;7.80;99.90;;;;;;5001363;28;20034;-74
2022/11/15 10:54:52;;;;;;;68.35;25.85;;;7.80;99.90;;;;;;4988334;28;20050;-74
2022/11/15 10:57:23;;;;;;;77.97;27.45;;;7.80;99.90;;;;;;5000587;28;20475;-74
2022/11/15 10:59:52;;;;;;;82.53;27.13;;;7.70;99.90;;;;;;4999940;28;20085;-74
2022/11/15 11:02:29;;;;;;;;;;;7.80;99.90;;;;;;5000752;28;20034;-74
2022/11/15 11:04:55;;;;;;;96.00;28.85;;;7.80;99.90;;;;;;4999935;28;20273;-73
2022/11/15 11:07:23;;;;;;;94.43;28.80;;;7.80;99.90;;;;;;4998942;28;20117;-76
2022/11/15 11:09:58;;;;;;;100.50;29.63;;;7.80;99.90;;;;;;4999772;28;20061;-75
2022/11/15 11:12:32;;;;;;;97.68;29.48;;;7.70;99.90;;;;;;4999985;28;20133;-76
2022/11/15 11:15:01;;;;;;;86.18;28.98;;;7.80;99.90;;;;;;4997623;28;20479;-74
2022/11/15 11:17:30;;;;;;;94.80;30.20;;;7.80;99.90;;;;;;4998289;28;20022;-73
2022/11/15 11:20:04;;;;;;;81.78;27.90;;;7.90;99.90;;;;;;4997418;28;20030;-72
2022/11/15 11:23:00;;;;;;;94.57;28.48;;;7.80;99.90;;;;;;4996451;28;20034;-72
2022/11/15 11:25:46;;;;;;;80.80;28.58;;;7.80;99.90;;;;;;4998071;28;20138;-74
2022/11/15 11:28:25;;;;;;;80.63;27.45;;;7.80;99.90;;;;;;4999856;28;20085;-73
2022/11/15 11:31:12;;;;;;;81.32;28.75;;;7.80;99.90;;;;;;4997178;28;20026;-73
2022/11/15 11:34:00;;;;;;;77.03;26.42;;;7.90;99.90;;;;;;4997015;28;20046;-73
2022/11/15 11:37:04;;;;;;;78.75;27.27;;;7.90;99.90;;;;;;4998303;28;20038;-72
2022/11/15 11:39:48;;;;;;;74.70;25.90;;;7.90;99.90;;;;;;4937885;29;20031;-72
2022/11/15 11:42:31;;;;;;;77.32;25.25;;;8.00;99.90;;;;;;4921532;29;20142;-73
2022/11/15 11:45:14;;;;;;;75.93;27.35;;;8.00;99.90;;;;;;4921709;29;20135;-72
2022/11/15 11:47:48;;;;;;;70.68;25.20;;;7.90;99.90;;;;;;4937474;29;20476;-73
2022/11/15 11:50:36;;;;;;;78.68;26.73;;;7.80;99.90;;;;;;4937212;29;20086;-72
2022/11/15 11:53:25;;;;;;;70.40;25.33;;;7.90;99.90;;;;;;4921065;29;20119;-71
2022/11/15 11:55:55;;;;;;;70.30;24.00;;;7.90;99.90;;;;;;4937190;29;20047;-72
2022/11/15 11:58:45;;;;;;;80.38;25.50;;;7.90;99.90;;;;;;4921403;29;20046;-72
2022/11/15 12:01:11;;;;;;;72.30;24.25;;;7.90;99.90;;;;;;4921267;29;20024;-73
2022/11/15 12:03:45;;;;;;;75.25;24.40;;;7.90;99.90;;;;;;4937612;29;20043;-72
2022/11/15 12:06:21;;;;;;;77.97;26.38;;;7.80;99.90;;;;;;4937404;29;20090;-72
2022/11/15 12:09:06;;;;;;;68.90;25.75;;;7.80;99.90;;;;;;4922001;29;20031;-73
2022/11/15 12:11:51;;;;;;;83.15;27.73;;;7.80;99.90;;;;;;4995955;28;20033;-73
2022/11/15 12:14:42;;;;;;;80.22;26.38;;;7.90;99.90;;;;;;4997792;28;20034;-72
2022/11/15 12:17:12;;;;;;;81.35;27.27;;;7.90;99.90;;;;;;4996527;28;20026;-60
2022/11/15 12:19:39;;;;;;;80.10;26.55;;;7.90;99.90;;;;;;4996038;28;20088;-61
2022/11/15 12:22:22;;;;;;;87.53;28.83;;;8.00;99.90;;;;;;4995982;28;20034;-61
2022/11/15 12:24:48;;;;;;;74.32;26.65;;;8.00;99.90;;;;;;4996017;28;20034;-61
2022/11/15 12:27:52;;;;;;;84.25;28.55;;;8.10;99.90;;;;;;4995949;28;20522;-61
2022/11/15 12:30:20;;;;;;;72.53;28.23;;;8.00;99.90;;;;;;4992498;28;20035;-61
2022/11/15 12:32:53;;;;;;;89.03;28.42;;;8.00;99.90;;;;;;4993457;28;20026;-60
2022/11/15 12:35:37;;;;;;;76.32;26.38;;;8.10;99.90;;;;;;4995450;28;20117;-70
2022/11/15 12:38:04;;;;;;;80.00;28.70;;;8.10;99.90;;;;;;4994939;28;20046;-70
2022/11/15 12:41:10;;;;;;;85.18;29.55;;;8.10;99.90;;;;;;4994489;28;20382;-70
2022/11/15 12:43:43;;;;;;;99.65;31.90;;;8.10;99.90;;;;;;4995615;28;20061;-71
2022/11/15 12:46:22;;;;;;;103.45;32.90;;;8.20;99.90;;;;;;4995807;28;20119;-71
2022/11/15 12:48:49;;;;;;;100.20;33.87;;;8.20;99.90;;;;;;4994954;28;20035;-72
2022/11/15 12:51:15;;;;;;;93.00;31.85;;;8.20;99.90;;;;;;4995811;28;20360;-72
2022/11/15 12:53:41;;;;;;;97.38;34.17;;;8.20;99.90;;;;;;4995464;28;20078;-71
2022/11/15 12:56:38;;;;;;;99.40;33.05;;;8.20;99.90;;;;;;4995383;28;20037;-72
2022/11/15 12:59:07;;;;;;;98.72;33.20;;;8.20;99.90;;;;;;4994359;28;20030;-72
2022/11/15 13:01:33;;;;;;;109.60;33.28;;;8.20;99.90;;;;;;4994561;28;20037;-71